createdAt,value
2023-11-23T00:02:27.188Z,7.90
2023-11-23T00:04:57.124Z,10.55
2023-11-23T00:07:26.709Z,8.13
2023-11-23T00:09:56.227Z,8.98
2023-11-23T00:12:25.873Z,8.93
2023-11-23T00:14:55.572Z,8.55
2023-11-23T00:17:25.174Z,8.08
2023-11-23T00:19:54.764Z,8.73
2023-11-23T00:22:24.479Z,8.75
2023-11-23T00:24:55.616Z,8.88
2023-11-23T00:27:25.150Z,9.08
2023-11-23T00:29:54.776Z,9.60
2023-11-23T00:32:24.486Z,9.78
2023-11-23T00:34:54.108Z,10.82
2023-11-23T00:37:23.779Z,10.35
2023-11-23T00:39:53.496Z,12.33
2023-11-23T00:42:23.975Z,12.53
2023-11-23T00:44:53.717Z,8.63
2023-11-23T00:47:23.644Z,8.93
2023-11-23T00:49:55.187Z,9.00
2023-11-23T00:52:24.701Z,7.20
2023-11-23T00:54:54.295Z,10.08
2023-11-23T00:57:23.958Z,9.63
2023-11-23T00:59:53.620Z,12.93
2023-11-23T01:02:23.439Z,10.08
2023-11-23T01:04:53.214Z,9.48
2023-11-23T01:07:22.935Z,9.50
2023-11-23T01:09:52.558Z,8.65
2023-11-23T01:12:22.127Z,11.12
2023-11-23T01:14:51.786Z,10.63
2023-11-23T01:17:21.929Z,8.60
2023-11-23T01:19:52.501Z,9.43
2023-11-23T01:22:22.194Z,11.60
2023-11-23T01:24:52.704Z,9.70
2023-11-23T01:27:22.322Z,10.98
2023-11-23T01:29:51.925Z,9.48
2023-11-23T01:32:21.546Z,11.08
2023-11-23T01:34:51.064Z,11.45
2023-11-23T01:37:20.665Z,11.43
2023-11-23T01:39:51.874Z,9.53
2023-11-23T01:42:22.518Z,12.10
2023-11-23T01:44:52.138Z,11.65
2023-11-23T01:47:22.355Z,10.13
2023-11-23T01:49:53.754Z,10.28
2023-11-23T01:52:23.364Z,12.73
2023-11-23T01:54:54.972Z,11.20
2023-11-23T01:57:25.745Z,9.75
2023-11-23T01:59:56.181Z,15.13
2023-11-23T02:02:25.990Z,9.70
2023-11-23T02:04:57.573Z,9.78
2023-11-23T02:07:28.109Z,11.80
2023-11-23T02:09:57.645Z,10.45
2023-11-23T02:12:30.076Z,9.33
2023-11-23T02:15:02.293Z,14.23
2023-11-23T02:17:32.186Z,15.20
2023-11-23T02:20:05.168Z,11.57
2023-11-23T02:25:05.708Z,11.00
2023-11-23T02:27:37.611Z,10.63
2023-11-23T02:30:10.078Z,10.98
2023-11-23T02:32:39.839Z,11.50
2023-11-23T02:35:09.666Z,12.53
2023-11-23T02:37:39.314Z,9.43
2023-11-23T02:40:11.575Z,11.03
2023-11-23T02:42:45.014Z,10.25
2023-11-23T02:45:13.684Z,10.68
2023-11-23T02:47:43.866Z,10.38
2023-11-23T02:50:14.211Z,11.55
2023-11-23T02:52:43.805Z,14.13
2023-11-23T02:55:13.441Z,9.38
2023-11-23T02:57:43.598Z,10.30
2023-11-23T03:00:14.143Z,11.12
2023-11-23T03:02:43.892Z,9.85
2023-11-23T03:05:13.592Z,12.20
2023-11-23T03:07:43.169Z,10.93
2023-11-23T03:10:12.950Z,11.97
2023-11-23T03:12:42.502Z,10.68
2023-11-23T03:15:12.341Z,10.70
2023-11-23T03:17:42.219Z,11.90
2023-11-23T03:20:12.443Z,12.43
2023-11-23T03:22:42.196Z,10.85
2023-11-23T03:25:44.232Z,10.28
2023-11-23T03:28:13.985Z,15.45
2023-11-23T03:30:43.593Z,13.15
2023-11-23T03:33:13.367Z,13.43
2023-11-23T03:35:45.050Z,11.20
2023-11-23T03:38:16.021Z,12.75
2023-11-23T03:40:46.963Z,14.18
2023-11-23T03:43:16.676Z,10.80
2023-11-23T03:45:46.256Z,11.95
2023-11-23T03:48:15.934Z,11.30
2023-11-23T03:50:45.585Z,10.32
2023-11-23T03:53:15.217Z,13.60
2023-11-23T03:55:44.913Z,12.63
2023-11-23T03:58:15.623Z,13.68
2023-11-23T04:00:46.156Z,12.90
2023-11-23T04:03:17.066Z,12.55
2023-11-23T04:05:46.810Z,13.68
2023-11-23T04:08:16.498Z,13.18
2023-11-23T04:10:46.073Z,12.90
2023-11-23T04:13:15.760Z,10.82
2023-11-23T04:15:46.932Z,9.83
2023-11-23T04:18:16.600Z,11.90
2023-11-23T04:20:46.389Z,17.60
2023-11-23T04:23:16.492Z,13.83
2023-11-23T04:25:46.412Z,12.00
2023-11-23T04:28:16.081Z,13.75
2023-11-23T04:30:45.761Z,13.00
2023-11-23T04:33:15.558Z,12.93
2023-11-23T04:35:45.265Z,11.43
2023-11-23T04:38:14.886Z,14.23
2023-11-23T04:40:44.431Z,10.98
2023-11-23T04:43:14.650Z,13.08
2023-11-23T04:45:44.772Z,13.93
2023-11-23T04:48:14.490Z,12.58
2023-11-23T04:50:44.567Z,14.98
2023-11-23T04:53:14.446Z,14.18
2023-11-23T04:55:44.774Z,14.60
2023-11-23T04:58:14.307Z,16.20
2023-11-23T05:00:43.903Z,16.80
2023-11-23T05:03:13.524Z,16.27
2023-11-23T05:05:43.254Z,13.98
2023-11-23T05:08:12.777Z,16.32
2023-11-23T05:10:42.316Z,13.28
2023-11-23T05:13:12.215Z,13.65
2023-11-23T05:15:42.178Z,14.15
2023-11-23T05:18:12.361Z,13.90
2023-11-23T05:20:41.983Z,15.25
2023-11-23T05:23:11.501Z,13.20
2023-11-23T05:25:41.220Z,12.93
2023-11-23T05:28:10.774Z,12.07
2023-11-23T05:30:40.957Z,10.98
2023-11-23T05:33:11.646Z,13.95
2023-11-23T05:35:41.324Z,14.40
2023-11-23T05:38:10.854Z,13.60
2023-11-23T05:40:40.482Z,12.43
2023-11-23T05:43:10.008Z,14.23
2023-11-23T05:45:39.540Z,17.17
2023-11-23T05:48:09.347Z,16.00
2023-11-23T05:50:39.094Z,16.77
2023-11-23T05:53:08.698Z,15.53
2023-11-23T05:55:38.764Z,13.38
2023-11-23T05:58:08.303Z,13.72
2023-11-23T06:00:37.886Z,14.38
2023-11-23T06:03:07.497Z,11.65
2023-11-23T06:05:37.263Z,14.33
2023-11-23T06:08:06.864Z,15.80
2023-11-23T06:10:36.399Z,13.28
2023-11-23T06:13:06.019Z,17.45
2023-11-23T06:15:35.653Z,14.65
2023-11-23T06:18:13.484Z,18.70
2023-11-23T06:20:37.125Z,12.15
2023-11-23T06:23:06.691Z,17.47
2023-11-23T06:25:36.273Z,15.05
2023-11-23T06:28:14.799Z,14.68
2023-11-23T06:30:37.158Z,17.95
2023-11-23T06:33:06.741Z,18.10
2023-11-23T06:35:36.367Z,14.83
2023-11-23T06:38:05.963Z,16.27
2023-11-23T06:40:36.363Z,17.98
2023-11-23T06:43:09.084Z,14.93
2023-11-23T06:45:38.686Z,15.98
2023-11-23T06:48:08.451Z,18.23
2023-11-23T06:50:38.116Z,15.68
2023-11-23T06:53:07.630Z,17.20
2023-11-23T06:55:37.234Z,16.60
2023-11-23T06:58:08.781Z,15.13
2023-11-23T07:00:39.962Z,18.50
2023-11-23T07:03:11.307Z,16.62
2023-11-23T07:05:41.092Z,16.85
2023-11-23T07:08:10.802Z,18.87
2023-11-23T07:10:42.055Z,21.17
2023-11-23T07:13:12.738Z,16.93
2023-11-23T07:15:43.054Z,21.65
2023-11-23T07:18:15.350Z,17.92
2023-11-23T07:20:44.481Z,17.02
2023-11-23T07:23:14.031Z,18.35
2023-11-23T07:25:45.144Z,18.00
2023-11-23T07:28:15.084Z,17.90
2023-11-23T07:30:45.120Z,18.70
2023-11-23T07:33:15.036Z,18.95
2023-11-23T07:35:46.352Z,19.42
2023-11-23T07:38:16.512Z,26.00
2023-11-23T07:40:47.073Z,19.95
2023-11-23T07:43:16.678Z,25.45
2023-11-23T07:45:46.247Z,20.27
2023-11-23T07:48:16.131Z,22.05
2023-11-23T07:50:45.919Z,17.65
2023-11-23T07:53:17.444Z,15.85
2023-11-23T07:55:48.940Z,22.37
2023-11-23T07:58:18.620Z,20.35
2023-11-23T08:00:48.268Z,19.80
2023-11-23T08:03:18.068Z,19.37
2023-11-23T08:05:47.623Z,18.75
2023-11-23T08:08:17.203Z,18.23
2023-11-23T08:10:46.911Z,21.05
2023-11-23T08:13:17.135Z,15.30
2023-11-23T08:15:47.998Z,20.27
2023-11-23T08:18:19.189Z,17.60
2023-11-23T08:20:48.798Z,22.75
2023-11-23T08:23:18.320Z,18.00
2023-11-23T08:25:48.808Z,17.82
2023-11-23T08:28:18.344Z,16.30
2023-11-23T08:30:48.656Z,16.70
2023-11-23T08:33:18.277Z,16.37
2023-11-23T08:35:49.656Z,14.20
2023-11-23T08:38:19.180Z,13.62
2023-11-23T08:40:48.801Z,17.20
2023-11-23T08:43:20.224Z,12.20
2023-11-23T08:45:49.970Z,13.03
2023-11-23T08:48:21.277Z,12.73
2023-11-23T08:50:51.690Z,15.13
2023-11-23T08:53:21.634Z,12.93
2023-11-23T08:55:52.833Z,11.95
2023-11-23T08:58:22.406Z,13.45
2023-11-23T09:00:52.079Z,12.75
2023-11-23T09:03:21.676Z,11.43
2023-11-23T09:05:51.364Z,11.38
2023-11-23T09:08:21.870Z,10.95
2023-11-23T09:10:53.378Z,13.05
2023-11-23T09:13:25.712Z,12.13
2023-11-23T09:15:56.436Z,10.23
2023-11-23T09:18:26.424Z,10.35
2023-11-23T09:20:58.394Z,12.13
2023-11-23T09:23:28.909Z,10.10
2023-11-23T09:25:59.370Z,11.08
2023-11-23T09:28:28.895Z,9.63
2023-11-23T09:30:58.529Z,13.18
2023-11-23T09:33:28.277Z,9.93
2023-11-23T09:35:58.152Z,11.12
2023-11-23T09:38:27.720Z,10.40
2023-11-23T09:41:01.425Z,11.50
2023-11-23T09:43:34.497Z,10.70
2023-11-23T09:46:04.694Z,10.18
2023-11-23T09:48:35.945Z,9.35
2023-11-23T09:51:05.637Z,9.93
2023-11-23T09:53:36.165Z,9.83
2023-11-23T09:56:06.245Z,7.30
2023-11-23T09:58:35.781Z,9.40
2023-11-23T10:01:07.085Z,8.00
2023-11-23T10:03:37.278Z,7.50
2023-11-23T10:06:07.473Z,10.90
2023-11-23T10:08:38.641Z,10.95
2023-11-23T10:11:08.365Z,12.47
2023-11-23T10:13:37.889Z,9.58
2023-11-23T10:16:08.479Z,11.05
2023-11-23T10:18:39.995Z,11.20
2023-11-23T10:21:12.949Z,14.68
2023-11-23T10:23:44.703Z,11.15
2023-11-23T10:26:14.422Z,9.80
2023-11-23T10:28:44.133Z,9.50
2023-11-23T10:31:14.184Z,9.63
2023-11-23T10:33:44.342Z,9.95
2023-11-23T10:36:15.154Z,11.85
2023-11-23T10:38:45.222Z,10.50
2023-11-23T10:41:16.283Z,9.23
2023-11-23T10:43:47.701Z,11.93
2023-11-23T10:46:20.036Z,9.70
2023-11-23T10:48:55.075Z,9.45
2023-11-23T10:51:28.203Z,9.83
2023-11-23T10:53:57.915Z,11.38
2023-11-23T10:56:30.654Z,10.72
2023-11-23T10:59:09.855Z,9.80
2023-11-23T11:01:40.593Z,10.80
2023-11-23T11:04:10.397Z,9.25
2023-11-23T11:06:41.234Z,11.85
2023-11-23T11:09:18.595Z,11.63
2023-11-23T11:11:50.420Z,10.05
2023-11-23T11:14:19.940Z,11.67
2023-11-23T11:16:49.514Z,9.53
2023-11-23T11:19:20.261Z,9.93
2023-11-23T11:21:50.090Z,11.53
2023-11-23T11:24:22.962Z,11.48
2023-11-23T11:26:54.747Z,10.85
2023-11-23T11:29:24.418Z,10.88
2023-11-23T11:31:56.165Z,11.45
2023-11-23T11:34:27.925Z,11.55
2023-11-23T11:37:07.422Z,15.53
2023-11-23T11:39:38.979Z,11.70
2023-11-23T11:42:12.120Z,11.18
2023-11-23T11:44:47.817Z,10.58
2023-11-23T11:47:19.346Z,10.93
2023-11-23T11:49:51.626Z,10.63
2023-11-23T11:52:21.614Z,11.15
2023-11-23T11:54:52.317Z,8.55
2023-11-23T11:57:21.922Z,9.63
2023-11-23T11:59:52.455Z,10.08
2023-11-23T12:02:22.243Z,9.33
2023-11-23T12:05:00.805Z,10.98
2023-11-23T12:07:30.651Z,9.50
2023-11-23T12:10:04.278Z,8.88
2023-11-23T12:12:46.304Z,7.65
2023-11-23T12:15:17.077Z,9.23
2023-11-23T12:17:53.737Z,10.82
2023-11-23T12:20:23.720Z,8.68
2023-11-23T12:22:56.359Z,11.05
2023-11-23T12:25:25.945Z,10.08
2023-11-23T12:27:57.147Z,11.83
2023-11-23T12:30:28.237Z,9.73
2023-11-23T12:33:01.851Z,9.28
2023-11-23T12:35:31.615Z,9.68
2023-11-23T12:38:01.682Z,10.63
2023-11-23T12:40:31.219Z,11.85
2023-11-23T12:43:01.200Z,11.90
2023-11-23T12:45:31.746Z,9.60
2023-11-23T12:48:02.134Z,7.30
2023-11-23T12:50:31.998Z,10.80
2023-11-23T12:53:01.527Z,8.68
2023-11-23T12:55:31.081Z,7.40
2023-11-23T12:58:01.039Z,10.93
2023-11-23T13:00:32.332Z,9.60
2023-11-23T13:03:02.006Z,8.13
2023-11-23T13:05:33.345Z,8.05
2023-11-23T13:08:03.607Z,9.47
2023-11-23T13:10:33.263Z,8.28
2023-11-23T13:13:04.393Z,8.95
2023-11-23T13:15:34.509Z,9.50
2023-11-23T13:18:05.845Z,10.68
2023-11-23T13:20:35.627Z,7.70
2023-11-23T13:23:06.800Z,8.50
2023-11-23T13:25:36.417Z,8.58
2023-11-23T13:28:06.343Z,8.23
2023-11-23T13:30:35.877Z,7.15
2023-11-23T13:33:07.230Z,8.03
2023-11-23T13:35:36.939Z,8.70
2023-11-23T13:38:06.607Z,9.13
2023-11-23T13:40:37.212Z,8.90
2023-11-23T13:43:06.774Z,11.10
2023-11-23T13:45:36.364Z,8.13
2023-11-23T13:48:06.330Z,7.00
2023-11-23T13:50:37.544Z,9.95
2023-11-23T13:53:08.037Z,12.53
2023-11-23T13:55:37.826Z,8.35
2023-11-23T13:58:10.440Z,6.05
2023-11-23T14:00:41.863Z,6.55
2023-11-23T14:03:11.740Z,7.50
2023-11-23T14:05:41.850Z,5.87
2023-11-23T14:08:11.405Z,7.53
2023-11-23T14:10:40.920Z,7.15
2023-11-23T14:13:11.290Z,10.32
2023-11-23T14:15:40.961Z,7.60
2023-11-23T14:18:11.974Z,7.53
2023-11-23T14:20:45.316Z,9.03
2023-11-23T14:23:14.946Z,7.05
2023-11-23T14:25:44.527Z,7.25
2023-11-23T14:28:16.682Z,9.28
2023-11-23T14:30:47.178Z,6.50
2023-11-23T14:33:21.887Z,6.60
2023-11-23T14:35:54.068Z,7.40
2023-11-23T14:38:24.734Z,8.28
2023-11-23T14:40:54.851Z,6.83
2023-11-23T14:43:25.806Z,7.30
2023-11-23T14:45:57.453Z,9.63
2023-11-23T14:48:27.820Z,6.80
2023-11-23T14:50:57.424Z,6.80
2023-11-23T14:53:28.766Z,8.35
2023-11-23T14:55:59.146Z,7.43
2023-11-23T14:58:29.413Z,6.65
2023-11-23T15:00:59.252Z,11.10
2023-11-23T15:03:29.200Z,7.58
2023-11-23T15:05:58.959Z,8.18
2023-11-23T15:08:28.465Z,6.90
2023-11-23T15:10:58.045Z,6.73
2023-11-23T15:13:35.973Z,8.30
2023-11-23T15:18:31.669Z,7.35
2023-11-23T15:21:01.448Z,8.53
2023-11-23T15:23:32.748Z,8.00
2023-11-23T15:26:04.600Z,8.63
2023-11-23T15:28:34.158Z,8.75
2023-11-23T15:31:04.180Z,7.03
2023-11-23T15:33:35.317Z,10.63
2023-11-23T15:36:06.732Z,8.98
2023-11-23T15:38:36.378Z,9.88
2023-11-23T15:41:06.328Z,7.87
2023-11-23T15:43:36.133Z,8.15
2023-11-23T15:46:06.152Z,11.18
2023-11-23T15:48:35.746Z,8.58
2023-11-23T15:51:05.337Z,15.58
2023-11-23T15:53:35.143Z,21.70
2023-11-23T15:56:04.741Z,9.80
2023-11-23T15:58:34.345Z,12.88
2023-11-23T16:01:05.611Z,8.63
2023-11-23T16:03:35.706Z,10.68
2023-11-23T16:06:05.441Z,13.28
2023-11-23T16:08:36.044Z,13.83
2023-11-23T16:11:05.657Z,11.13
2023-11-23T16:13:36.750Z,12.28
2023-11-23T16:16:07.564Z,11.18
2023-11-23T16:18:38.802Z,11.93
2023-11-23T16:21:08.979Z,18.42
2023-11-23T16:23:38.737Z,14.40
2023-11-23T16:26:10.095Z,15.00
2023-11-23T16:28:39.913Z,25.15
2023-11-23T16:31:09.520Z,14.83
2023-11-23T16:33:39.939Z,16.77
2023-11-23T16:36:13.940Z,15.35
2023-11-23T16:38:46.005Z,16.00
2023-11-23T16:41:15.530Z,14.63
2023-11-23T16:43:45.601Z,14.13
2023-11-23T16:46:17.350Z,15.40
2023-11-23T16:48:48.513Z,17.35
2023-11-23T16:51:20.183Z,14.13
2023-11-23T16:53:53.668Z,13.68
2023-11-23T16:56:22.392Z,16.25
2023-11-23T16:58:52.947Z,21.05
2023-11-23T17:01:24.083Z,16.65
2023-11-23T17:03:55.905Z,19.05
2023-11-23T17:06:26.446Z,20.07
2023-11-23T17:08:56.805Z,23.95
2023-11-23T17:11:28.191Z,20.82
2023-11-23T17:14:00.063Z,24.95
2023-11-23T17:16:30.328Z,23.25
2023-11-23T17:19:00.047Z,27.48
2023-11-23T17:21:31.095Z,23.92
2023-11-23T17:24:00.677Z,27.55
2023-11-23T17:26:31.105Z,26.85
2023-11-23T17:29:01.014Z,22.27
2023-11-23T17:31:30.550Z,22.45
2023-11-23T17:34:00.232Z,35.63
2023-11-23T17:36:30.010Z,41.00
2023-11-23T17:39:02.174Z,43.70
2023-11-23T17:41:30.814Z,38.25
2023-11-23T17:44:00.409Z,28.23
2023-11-23T17:46:29.965Z,29.57
2023-11-23T17:48:59.570Z,28.15
2023-11-23T17:51:29.187Z,27.82
2023-11-23T17:53:58.699Z,26.10
2023-11-23T17:56:28.296Z,28.07
2023-11-23T17:59:08.571Z,27.00
2023-11-23T18:01:29.471Z,33.98
2023-11-23T18:03:59.257Z,30.08
2023-11-23T18:06:30.169Z,28.73
2023-11-23T18:09:00.250Z,30.12
2023-11-23T18:11:30.788Z,31.02
2023-11-23T18:14:00.449Z,35.67
2023-11-23T18:16:30.272Z,27.30
2023-11-23T18:19:01.549Z,26.60
2023-11-23T18:21:31.403Z,27.75
2023-11-23T18:24:01.843Z,24.45
2023-11-23T18:26:31.401Z,22.95
2023-11-23T18:29:01.085Z,26.02
2023-11-23T18:31:32.354Z,30.45
2023-11-23T18:34:02.698Z,26.30
2023-11-23T18:36:34.435Z,26.17
2023-11-23T18:39:09.400Z,25.57
2023-11-23T18:41:39.127Z,31.60
2023-11-23T18:44:08.650Z,44.13
2023-11-23T18:46:39.525Z,41.13
2023-11-23T18:49:10.556Z,37.67
2023-11-23T18:51:40.224Z,34.35
2023-11-23T18:54:14.739Z,34.27
2023-11-23T18:56:45.502Z,32.25
2023-11-23T18:59:15.038Z,25.70
2023-11-23T19:01:45.070Z,23.22
2023-11-23T19:04:15.165Z,25.17
2023-11-23T19:06:45.804Z,24.65
2023-11-23T19:09:16.334Z,26.27
2023-11-23T19:11:46.595Z,23.45
2023-11-23T19:14:16.121Z,21.37
2023-11-23T19:16:45.729Z,22.17
2023-11-23T19:19:15.660Z,24.52
2023-11-23T19:21:46.775Z,23.25
2023-11-23T19:24:17.482Z,24.87
2023-11-23T19:26:47.476Z,24.50
2023-11-23T19:29:17.238Z,27.25
2023-11-23T19:31:50.442Z,29.02
2023-11-23T19:34:20.524Z,27.15
2023-11-23T19:36:52.169Z,26.57
2023-11-23T19:39:22.741Z,23.52
2023-11-23T19:41:53.968Z,24.20
2023-11-23T19:44:23.742Z,23.40
2023-11-23T19:46:53.734Z,22.07
2023-11-23T19:49:23.498Z,23.80
2023-11-23T19:51:53.277Z,21.25
2023-11-23T19:54:22.840Z,22.20
2023-11-23T19:56:52.482Z,26.68
2023-11-23T19:59:22.170Z,27.58
2023-11-23T20:01:51.926Z,27.82
2023-11-23T20:04:21.526Z,30.72
2023-11-23T20:06:52.149Z,26.62
2023-11-23T20:09:22.218Z,25.80
2023-11-23T20:11:51.823Z,26.25
2023-11-23T20:14:21.333Z,27.55
2023-11-23T20:16:50.981Z,24.30
2023-11-23T20:19:22.750Z,27.58
2023-11-23T20:21:52.935Z,52.93
2023-11-23T20:24:24.196Z,27.27
2023-11-23T20:26:54.233Z,23.70
2023-11-23T20:29:23.861Z,30.02
2023-11-23T20:31:53.539Z,33.90
2023-11-23T20:34:23.142Z,32.03
2023-11-23T20:36:52.753Z,27.82
2023-11-23T20:39:22.428Z,34.70
2023-11-23T20:41:52.103Z,32.63
2023-11-23T20:44:22.403Z,31.00
2023-11-23T20:46:53.205Z,27.95
2023-11-23T20:49:22.793Z,29.20
2023-11-23T20:51:54.108Z,31.77
2023-11-23T20:54:23.883Z,25.65
2023-11-23T20:57:00.795Z,36.28
2023-11-23T20:59:30.761Z,32.30
2023-11-23T21:02:00.727Z,32.30
2023-11-23T21:04:34.736Z,33.05
2023-11-23T21:07:05.123Z,38.90
2023-11-23T21:09:35.382Z,40.92
2023-11-23T21:12:12.573Z,34.75
2023-11-23T21:14:38.401Z,35.63
2023-11-23T21:17:08.521Z,33.25
2023-11-23T21:19:38.768Z,30.75
2023-11-23T21:22:09.350Z,31.07
2023-11-23T21:24:40.415Z,30.62
2023-11-23T21:27:10.043Z,31.93
2023-11-23T21:29:39.770Z,30.62
2023-11-23T21:32:09.940Z,29.50
2023-11-23T21:34:39.462Z,30.27
2023-11-23T21:37:09.022Z,34.00
2023-11-23T21:39:38.681Z,35.35
2023-11-23T21:42:10.166Z,36.08
2023-11-23T21:44:39.784Z,33.30
2023-11-23T21:47:10.127Z,26.83
2023-11-23T21:49:41.977Z,28.70
2023-11-23T21:52:12.140Z,26.63
2023-11-23T21:54:50.348Z,25.00
2023-11-23T21:57:13.123Z,28.60
2023-11-23T21:59:42.689Z,26.33
2023-11-23T22:02:12.432Z,20.15
2023-11-23T22:04:43.759Z,24.32
2023-11-23T22:07:13.364Z,23.02
2023-11-23T22:09:43.219Z,23.57
2023-11-23T22:12:12.727Z,22.25
2023-11-23T22:14:42.263Z,19.07
2023-11-23T22:17:12.587Z,17.57
2023-11-23T22:19:43.405Z,22.93
2023-11-23T22:22:13.462Z,18.10
2023-11-23T22:24:44.531Z,13.48
2023-11-23T22:27:14.775Z,16.25
2023-11-23T22:29:44.563Z,20.43
2023-11-23T22:32:19.693Z,17.27
2023-11-23T22:34:49.501Z,16.65
2023-11-23T22:37:20.311Z,18.62
2023-11-23T22:39:50.011Z,16.75
2023-11-23T22:42:19.905Z,17.77
2023-11-23T22:44:49.906Z,17.60
2023-11-23T22:47:19.428Z,17.30
2023-11-23T22:49:51.930Z,18.55
2023-11-23T22:52:20.244Z,18.92
2023-11-23T22:54:49.785Z,18.37
2023-11-23T22:57:19.347Z,17.42
2023-11-23T22:59:49.032Z,18.85
2023-11-23T23:02:19.398Z,16.00
2023-11-23T23:04:49.266Z,19.62
2023-11-23T23:07:20.574Z,17.75
2023-11-23T23:09:50.150Z,24.15
2023-11-23T23:12:19.949Z,17.82
2023-11-23T23:14:49.522Z,16.82
2023-11-23T23:17:19.151Z,17.32
2023-11-23T23:19:48.699Z,19.48
2023-11-23T23:22:26.465Z,16.62
2023-11-23T23:24:49.516Z,18.90
2023-11-23T23:27:19.301Z,19.48
2023-11-23T23:29:48.819Z,17.57
2023-11-23T23:32:18.372Z,16.50
2023-11-23T23:34:48.090Z,20.17
2023-11-23T23:37:18.308Z,16.82
2023-11-23T23:39:48.439Z,15.32
2023-11-23T23:42:18.116Z,16.32
2023-11-23T23:44:47.606Z,19.75
2023-11-23T23:47:17.141Z,16.23
2023-11-23T23:49:46.737Z,15.50
2023-11-23T23:52:16.337Z,16.87
2023-11-23T23:54:46.658Z,13.50
2023-11-23T23:57:16.383Z,13.38
2023-11-23T23:59:47.282Z,13.43
